createdAt,value
2023-01-05T00:02:24.434Z,97499.22
2023-01-05T00:06:43.183Z,97496.25
2023-01-05T00:11:46.347Z,97485.16
2023-01-05T00:16:23.102Z,97482.97
2023-01-05T00:20:59.424Z,97489.72
2023-01-05T00:25:21.628Z,97481.97
2023-01-05T00:29:38.821Z,97468.31
2023-01-05T00:33:56.372Z,97475.25
2023-01-05T00:38:13.807Z,97464.16
2023-01-05T00:42:31.481Z,97434.00
2023-01-05T00:46:48.623Z,97440.34
2023-01-05T00:51:06.401Z,97453.41
2023-01-05T00:55:24.196Z,97445.66
2023-01-05T00:59:42.428Z,97447.28
2023-01-05T01:03:59.869Z,97447.88
2023-01-05T01:08:17.481Z,97432.59
2023-01-05T01:12:35.042Z,97424.09
2023-01-05T01:16:52.383Z,97427.44
2023-01-05T01:21:09.966Z,97414.16
2023-01-05T01:25:27.923Z,97404.63
2023-01-05T01:29:45.496Z,97392.94
2023-01-05T01:34:03.196Z,97386.19
2023-01-05T01:38:21.382Z,97384.59
2023-01-05T01:42:39.025Z,97360.59
2023-01-05T01:46:56.723Z,97366.94
2023-01-05T01:51:22.654Z,97363.59
2023-01-05T01:55:41.364Z,97347.31
2023-01-05T02:00:00.218Z,97337.41
2023-01-05T02:04:18.220Z,97324.28
2023-01-05T02:08:35.756Z,97314.81
2023-01-05T02:13:31.647Z,97304.88
2023-01-05T02:18:20.597Z,97302.69
2023-01-05T02:23:09.998Z,97297.56
2023-01-05T02:27:54.333Z,97285.84
2023-01-05T02:32:55.236Z,97275.38
2023-01-05T02:37:33.119Z,97282.09
2023-01-05T02:42:13.146Z,97281.91
2023-01-05T02:46:30.833Z,97271.44
2023-01-05T02:51:02.559Z,97263.69
2023-01-05T02:55:29.672Z,97258.50
2023-01-05T02:59:55.004Z,97249.56
2023-01-05T03:04:23.523Z,97261.69
2023-01-05T03:08:53.259Z,97250.34
2023-01-05T03:13:30.064Z,97263.66
2023-01-05T03:17:55.324Z,97248.38
2023-01-05T03:22:42.120Z,97240.50
2023-01-05T03:27:19.051Z,97241.06
2023-01-05T03:32:10.001Z,97241.88
2023-01-05T03:36:29.889Z,97227.56
2023-01-05T03:40:53.791Z,97241.63
2023-01-05T03:45:12.407Z,97229.16
2023-01-05T03:49:29.862Z,97212.84
2023-01-05T03:53:47.481Z,97213.91
2023-01-05T03:58:05.231Z,97211.31
2023-01-05T04:02:22.896Z,97203.97
2023-01-05T04:06:40.595Z,97192.47
2023-01-05T04:11:04.335Z,97200.03
2023-01-05T04:15:22.012Z,97194.44
2023-01-05T04:19:39.470Z,97188.94
2023-01-05T04:23:57.057Z,97200.81
2023-01-05T04:28:14.089Z,97200.41
2023-01-05T04:32:31.854Z,97216.84
2023-01-05T04:36:49.732Z,97209.94
2023-01-05T04:41:07.273Z,97206.97
2023-01-05T04:45:24.868Z,97214.03
2023-01-05T04:49:42.965Z,97206.59
2023-01-05T04:54:00.417Z,97217.50
2023-01-05T04:58:19.390Z,97203.41
2023-01-05T05:02:37.168Z,97195.03
2023-01-05T05:06:56.449Z,97194.44
2023-01-05T05:11:14.120Z,97186.91
2023-01-05T05:15:31.682Z,97185.75
2023-01-05T05:19:49.164Z,97179.41
2023-01-05T05:24:06.959Z,97176.63
2023-01-05T05:28:28.321Z,97176.06
2023-01-05T05:32:46.110Z,97183.94
2023-01-05T05:37:03.600Z,97172.94
2023-01-05T05:41:21.138Z,97182.16
2023-01-05T05:45:38.756Z,97180.38
2023-01-05T05:49:56.479Z,97187.47
2023-01-05T05:54:13.993Z,97227.38
2023-01-05T05:58:31.682Z,97287.47
2023-01-05T06:02:49.313Z,97274.56
2023-01-05T06:07:06.946Z,97268.44
2023-01-05T06:11:24.532Z,97258.13
2023-01-05T06:15:43.081Z,97238.88
2023-01-05T06:20:00.675Z,97238.03
2023-01-05T06:24:18.415Z,97229.13
2023-01-05T06:28:35.844Z,97250.63
2023-01-05T06:32:53.440Z,97250.78
2023-01-05T06:37:10.955Z,97283.13
2023-01-05T06:41:28.498Z,97266.66
2023-01-05T06:45:46.029Z,97267.06
2023-01-05T06:50:04.111Z,97270.63
2023-01-05T06:54:21.504Z,97284.13
2023-01-05T06:58:39.215Z,97274.00
2023-01-05T07:02:56.734Z,97282.13
2023-01-05T07:07:17.072Z,61357.19
2023-01-05T07:11:35.025Z,61357.19
2023-01-05T07:15:52.748Z,97272.81
2023-01-05T07:20:10.692Z,61357.19
2023-01-05T07:24:28.382Z,61357.19
2023-01-05T07:28:46.033Z,61357.19
2023-01-05T07:33:03.890Z,61357.19
2023-01-05T07:37:21.415Z,61357.19
2023-01-05T07:41:38.872Z,61357.19
2023-01-05T07:46:04.021Z,61357.19
2023-01-05T07:50:21.821Z,61357.19
2023-01-05T07:54:39.295Z,61357.19
2023-01-05T07:58:56.802Z,61357.19
2023-01-05T08:03:15.704Z,61357.19
2023-01-05T08:07:33.396Z,61357.19
2023-01-05T08:11:50.841Z,61357.19
2023-01-05T08:16:08.636Z,61357.19
2023-01-05T08:20:25.815Z,61357.19
2023-01-05T08:24:43.662Z,61357.19
2023-01-05T08:29:01.544Z,61357.19
2023-01-05T08:33:19.200Z,61357.19
2023-01-05T08:37:36.230Z,61357.19
2023-01-05T08:41:58.886Z,61357.19
2023-01-05T08:46:21.140Z,61357.19
2023-01-05T08:50:38.756Z,61357.19
2023-01-05T08:54:56.182Z,61357.19
2023-01-05T08:59:14.228Z,61357.19
2023-01-05T09:03:31.777Z,61357.19
2023-01-05T09:07:50.251Z,61357.19
2023-01-05T09:12:08.071Z,61357.19
2023-01-05T09:21:07.851Z,61357.19
2023-01-05T09:25:25.807Z,61357.19
2023-01-05T09:29:43.713Z,61357.19
2023-01-05T09:34:01.457Z,61357.19
2023-01-05T09:38:18.841Z,61357.19
2023-01-05T09:42:40.525Z,61357.19
2023-01-05T09:47:01.965Z,61357.19
2023-01-05T09:51:19.208Z,61357.19
2023-01-05T09:55:36.911Z,61357.19
2023-01-05T09:59:59.156Z,61357.19
2023-01-05T10:04:20.939Z,61357.19
2023-01-05T10:08:45.127Z,61357.19
2023-01-05T10:13:04.681Z,61357.19
2023-01-05T10:17:41.234Z,61357.19
2023-01-05T10:22:24.764Z,61357.19
2023-01-05T10:27:24.144Z,61357.19
2023-01-05T10:31:46.359Z,61357.19
2023-01-05T10:36:28.149Z,61357.19
2023-01-05T10:41:19.520Z,61357.19
2023-01-05T10:45:57.260Z,61357.19
2023-01-05T10:50:39.451Z,61357.19
2023-01-05T10:55:01.193Z,61357.19
2023-01-05T10:59:18.842Z,61357.19
2023-01-05T11:04:23.791Z,61357.19
2023-01-05T11:08:30.812Z,61357.19
2023-01-05T11:13:33.779Z,61357.19
2023-01-05T11:17:51.518Z,61357.19
2023-01-05T11:22:40.395Z,61357.19
2023-01-05T11:27:21.275Z,61357.19
2023-01-05T11:31:53.565Z,61357.19
2023-01-05T11:36:15.055Z,61357.19
2023-01-05T11:40:36.164Z,97281.53
2023-01-05T11:45:21.306Z,97275.16
2023-01-05T11:49:39.095Z,97297.94
2023-01-05T11:53:56.740Z,97307.78
2023-01-05T11:58:27.016Z,97313.09
2023-01-05T12:03:03.325Z,97303.16
2023-01-05T12:07:37.621Z,97305.50
2023-01-05T12:11:55.063Z,97295.19
2023-01-05T12:16:27.704Z,97284.25
2023-01-05T12:21:01.509Z,97288.66
2023-01-05T12:25:26.317Z,97288.84
2023-01-05T12:35:20.122Z,97303.09
2023-01-05T12:40:06.712Z,97313.56
2023-01-05T12:44:45.476Z,97313.38
2023-01-05T12:49:11.208Z,97291.44
2023-01-05T12:53:43.855Z,97363.59
2023-01-05T12:58:31.644Z,97389.56
2023-01-05T13:03:01.028Z,97370.13
2023-01-05T13:07:33.172Z,97350.69
2023-01-05T13:12:05.353Z,97342.75
2023-01-05T13:16:42.082Z,97356.63
2023-01-05T13:21:04.342Z,97357.84
2023-01-05T13:25:27.919Z,97351.09
2023-01-05T13:29:51.132Z,97386.19
2023-01-05T13:34:17.900Z,97396.91
2023-01-05T13:39:25.188Z,97368.38
2023-01-05T13:44:29.061Z,97359.75
2023-01-05T13:49:04.053Z,97366.94
2023-01-05T13:53:26.052Z,97370.34
2023-01-05T13:57:44.539Z,97365.38
2023-01-05T14:02:03.377Z,97370.91
2023-01-05T14:06:38.300Z,97387.38
2023-01-05T14:11:15.698Z,97386.81
2023-01-05T14:15:44.503Z,97371.31
2023-01-05T14:20:01.551Z,97375.50
2023-01-05T14:28:56.986Z,97396.13
2023-01-05T14:33:18.771Z,97380.84
2023-01-05T14:38:00.684Z,97378.84
2023-01-05T14:42:32.938Z,97368.75
2023-01-05T14:46:56.174Z,97363.41
2023-01-05T14:51:16.127Z,97354.88
2023-01-05T14:56:03.761Z,97356.28
2023-01-05T15:00:48.388Z,97346.56
2023-01-05T15:05:18.765Z,97353.91
2023-01-05T15:09:48.509Z,97360.47
2023-01-05T15:14:31.940Z,97354.13
2023-01-05T15:19:22.029Z,97362.63
2023-01-05T15:24:21.453Z,97369.97
2023-01-05T15:29:40.081Z,97370.75
2023-01-05T15:34:16.777Z,97370.16
2023-01-05T15:38:46.301Z,97376.13
2023-01-05T15:43:04.456Z,97379.28
2023-01-05T15:47:25.913Z,97370.78
2023-01-05T15:51:49.886Z,97384.03
2023-01-05T15:56:25.936Z,97389.59
2023-01-05T16:00:43.464Z,97397.50
2023-01-05T16:05:24.237Z,97416.13
2023-01-05T16:09:46.895Z,97416.34
2023-01-05T16:14:14.077Z,97428.63
2023-01-05T16:18:40.211Z,97440.53
2023-01-05T16:23:17.138Z,97443.91
2023-01-05T16:27:40.669Z,97447.84
2023-01-05T16:31:58.401Z,97470.44
2023-01-05T16:36:22.354Z,97477.59
2023-01-05T16:40:45.760Z,97488.84
2023-01-05T16:45:03.246Z,97478.00
2023-01-05T16:49:49.858Z,97492.25
2023-01-05T16:54:45.286Z,97503.94
2023-01-05T16:59:31.169Z,97509.28
2023-01-05T17:03:49.328Z,97514.25
2023-01-05T17:08:10.733Z,97511.69
2023-01-05T17:12:28.142Z,97531.91
2023-01-05T17:16:46.289Z,97537.84
2023-01-05T17:21:06.136Z,97534.28
2023-01-05T17:25:31.579Z,97540.22
2023-01-05T17:29:49.162Z,97528.53
2023-01-05T17:34:07.089Z,97541.22
2023-01-05T17:38:24.967Z,97541.22
2023-01-05T17:42:44.939Z,97564.38
2023-01-05T17:47:02.668Z,97553.50
2023-01-05T17:51:20.575Z,97557.84
2023-01-05T17:55:38.450Z,97569.38
2023-01-05T17:59:56.262Z,97579.47
2023-01-05T18:04:13.656Z,97588.16
2023-01-05T18:08:31.531Z,97597.75
2023-01-05T18:12:49.560Z,97589.56
2023-01-05T18:17:06.720Z,97603.25
2023-01-05T18:21:24.412Z,97611.13
2023-01-05T18:25:42.052Z,97629.38
2023-01-05T18:29:59.437Z,97624.25
2023-01-05T18:34:16.958Z,97641.88
2023-01-05T18:38:34.700Z,97640.50
2023-01-05T18:42:52.194Z,97642.06
2023-01-05T18:47:09.732Z,97651.38
2023-01-05T18:51:27.669Z,97666.03
2023-01-05T18:55:45.208Z,97664.66
2023-01-05T19:00:05.599Z,97675.56
2023-01-05T19:04:23.150Z,97688.59
2023-01-05T19:08:42.918Z,97689.22
2023-01-05T19:13:00.481Z,97701.69
2023-01-05T19:17:18.205Z,97721.13
2023-01-05T19:21:39.426Z,97721.72
2023-01-05T19:26:05.915Z,97733.59
2023-01-05T19:30:24.958Z,97752.84
2023-01-05T19:34:42.918Z,97754.63
2023-01-05T19:39:28.301Z,97774.38
2023-01-05T19:43:54.448Z,97788.44
2023-01-05T19:48:11.979Z,97807.66
2023-01-05T19:52:30.272Z,97815.78
2023-01-05T19:56:47.872Z,97829.03
2023-01-05T20:01:14.468Z,97821.34
2023-01-05T20:05:32.108Z,97839.94
2023-01-05T20:09:51.471Z,97849.44
2023-01-05T20:14:25.161Z,97846.09
2023-01-05T20:18:42.891Z,97851.66
2023-01-05T20:23:00.485Z,97851.88
2023-01-05T20:27:19.362Z,97854.81
2023-01-05T20:31:41.387Z,97866.31
2023-01-05T20:35:59.117Z,97868.69
2023-01-05T20:40:16.821Z,97872.84
2023-01-05T20:44:38.191Z,97871.72
2023-01-05T20:48:55.574Z,97897.03
2023-01-05T20:53:13.342Z,97912.94
2023-01-05T20:57:30.989Z,97922.38
2023-01-05T21:01:50.000Z,97927.72
2023-01-05T21:06:11.039Z,97930.53
2023-01-05T21:10:29.760Z,97928.88
2023-01-05T21:14:46.757Z,97936.69
2023-01-05T21:19:06.146Z,97943.53
2023-01-05T21:23:23.956Z,97955.50
2023-01-05T21:27:44.472Z,97949.00
2023-01-05T21:32:02.372Z,97955.25
2023-01-05T21:36:31.433Z,97966.84
2023-01-05T21:40:48.968Z,97968.16
2023-01-05T21:45:08.630Z,97977.66
2023-01-05T21:49:27.297Z,97976.84
2023-01-05T21:54:03.676Z,97990.34
2023-01-05T21:58:21.669Z,97992.13
2023-01-05T22:02:38.730Z,97994.13
2023-01-05T22:06:56.545Z,97999.66
2023-01-05T22:11:13.933Z,98011.53
2023-01-05T22:15:31.587Z,98020.63
2023-01-05T22:19:49.138Z,98025.38
2023-01-05T22:24:07.696Z,98035.69
2023-01-05T22:28:25.171Z,98058.47
2023-01-05T22:32:42.524Z,98063.56
2023-01-05T22:37:00.128Z,98069.94
2023-01-05T22:41:24.431Z,98072.34
2023-01-05T22:45:44.886Z,98075.72
2023-01-05T22:50:04.223Z,98077.56
2023-01-05T22:54:22.075Z,98088.59
2023-01-05T22:58:40.588Z,98098.28
2023-01-05T23:03:00.274Z,98108.75
2023-01-05T23:07:20.797Z,98114.69
2023-01-05T23:11:42.078Z,98129.56
2023-01-05T23:15:59.594Z,98135.31
2023-01-05T23:20:17.277Z,98140.47
2023-01-05T23:24:34.998Z,98139.84
2023-01-05T23:28:53.068Z,98141.38
2023-01-05T23:33:10.400Z,98159.66
2023-01-05T23:37:31.246Z,98161.06
2023-01-05T23:41:48.863Z,98163.03
2023-01-05T23:46:20.574Z,98169.97
2023-01-05T23:50:43.627Z,98177.94
2023-01-05T23:55:01.698Z,98178.50
2023-01-05T23:59:19.320Z,98184.19
